sensor_id;sensor_type;location;lat;lon;timestamp;pressure;altitude;pressure_sealevel;temperature;humidity
40730;BME280;26418;50.070;8.436;2023-02-18T00:01:59;100762.66;;;10.66;100.00
40730;BME280;26418;50.070;8.436;2023-02-18T00:04:24;100770.44;;;10.73;100.00
40730;BME280;26418;50.070;8.436;2023-02-18T00:06:50;100764.50;;;10.70;100.00
40730;BME280;26418;50.070;8.436;2023-02-18T00:09:15;100766.88;;;10.82;100.00
40730;BME280;26418;50.070;8.436;2023-02-18T00:11:40;100775.78;;;10.83;100.00
40730;BME280;26418;50.070;8.436;2023-02-18T00:14:12;100769.06;;;10.80;100.00
40730;BME280;26418;50.070;8.436;2023-02-18T00:16:37;100769.06;;;10.75;100.00
40730;BME280;26418;50.070;8.436;2023-02-18T00:19:05;100764.25;;;10.67;100.00
40730;BME280;26418;50.070;8.436;2023-02-18T00:21:34;100766.44;;;10.65;100.00
40730;BME280;26418;50.070;8.436;2023-02-18T00:24:00;100762.97;;;10.59;100.00
40730;BME280;26418;50.070;8.436;2023-02-18T00:26:26;100746.78;;;10.49;100.00
40730;BME280;26418;50.070;8.436;2023-02-18T00:28:51;100751.41;;;10.48;100.00
40730;BME280;26418;50.070;8.436;2023-02-18T00:31:24;100750.28;;;10.49;100.00
40730;BME280;26418;50.070;8.436;2023-02-18T00:33:50;100755.69;;;10.49;100.00
40730;BME280;26418;50.070;8.436;2023-02-18T00:36:18;100755.44;;;10.51;100.00
40730;BME280;26418;50.070;8.436;2023-02-18T00:38:47;100759.22;;;10.50;100.00
40730;BME280;26418;50.070;8.436;2023-02-18T00:41:13;100741.13;;;10.45;100.00
40730;BME280;26418;50.070;8.436;2023-02-18T00:43:38;100747.56;;;10.54;100.00
40730;BME280;26418;50.070;8.436;2023-02-18T00:46:04;100750.28;;;10.54;100.00
40730;BME280;26418;50.070;8.436;2023-02-18T00:48:30;100747.28;;;10.56;100.00
40730;BME280;26418;50.070;8.436;2023-02-18T00:50:55;100750.28;;;10.54;100.00
40730;BME280;26418;50.070;8.436;2023-02-18T00:53:21;100762.72;;;10.56;100.00
40730;BME280;26418;50.070;8.436;2023-02-18T00:55:47;100764.56;;;10.60;100.00
40730;BME280;26418;50.070;8.436;2023-02-18T00:58:13;100766.69;;;10.63;100.00
40730;BME280;26418;50.070;8.436;2023-02-18T01:00:39;100762.41;;;10.57;100.00
40730;BME280;26418;50.070;8.436;2023-02-18T01:03:05;100758.09;;;10.61;100.00
40730;BME280;26418;50.070;8.436;2023-02-18T01:05:34;100764.25;;;10.67;100.00
40730;BME280;26418;50.070;8.436;2023-02-18T01:07:59;100755.94;;;10.58;100.00
40730;BME280;26418;50.070;8.436;2023-02-18T01:10:24;100773.19;;;10.62;100.00
40730;BME280;26418;50.070;8.436;2023-02-18T01:12:50;100761.09;;;10.54;100.00
40730;BME280;26418;50.070;8.436;2023-02-18T01:15:18;100751.16;;;10.45;100.00
40730;BME280;26418;50.070;8.436;2023-02-18T01:17:44;100763.00;;;10.49;100.00
40730;BME280;26418;50.070;8.436;2023-02-18T01:20:11;100759.25;;;10.45;100.00
40730;BME280;26418;50.070;8.436;2023-02-18T01:22:37;100760.88;;;10.41;100.00
40730;BME280;26418;50.070;8.436;2023-02-18T01:25:03;100749.53;;;10.33;100.00
40730;BME280;26418;50.070;8.436;2023-02-18T01:27:29;100754.13;;;10.33;100.00
40730;BME280;26418;50.070;8.436;2023-02-18T01:29:54;100748.75;;;10.28;100.00
40730;BME280;26418;50.070;8.436;2023-02-18T01:32:19;100741.72;;;10.27;100.00
40730;BME280;26418;50.070;8.436;2023-02-18T01:34:45;100733.06;;;10.25;100.00
40730;BME280;26418;50.070;8.436;2023-02-18T01:37:11;100741.47;;;10.23;100.00
40730;BME280;26418;50.070;8.436;2023-02-18T01:39:37;100750.66;;;10.22;100.00
40730;BME280;26418;50.070;8.436;2023-02-18T01:42:02;100750.41;;;10.23;100.00
40730;BME280;26418;50.070;8.436;2023-02-18T01:44:28;100745.00;;;10.23;100.00
40730;BME280;26418;50.070;8.436;2023-02-18T01:46:54;100719.63;;;10.14;100.00
40730;BME280;26418;50.070;8.436;2023-02-18T01:49:25;100712.84;;;10.17;100.00
40730;BME280;26418;50.070;8.436;2023-02-18T01:52:21;100729.28;;;10.26;100.00
40730;BME280;26418;50.070;8.436;2023-02-18T01:54:51;100717.13;;;10.28;99.19
40730;BME280;26418;50.070;8.436;2023-02-18T01:57:26;100717.13;;;10.28;98.54
40730;BME280;26418;50.070;8.436;2023-02-18T02:00:06;100717.94;;;10.29;98.20
40730;BME280;26418;50.070;8.436;2023-02-18T02:02:34;100723.63;;;10.27;97.78
40730;BME280;26418;50.070;8.436;2023-02-18T02:05:02;100722.25;;;10.25;98.01
40730;BME280;26418;50.070;8.436;2023-02-18T02:07:27;100717.97;;;10.18;98.29
40730;BME280;26418;50.070;8.436;2023-02-18T02:09:55;100720.91;;;10.22;97.99
40730;BME280;26418;50.070;8.436;2023-02-18T02:15:47;100703.38;;;10.19;97.68
40730;BME280;26418;50.070;8.436;2023-02-18T02:26:07;100696.94;;;10.10;98.03
40730;BME280;26418;50.070;8.436;2023-02-18T02:31:59;100696.13;;;10.04;97.13
40730;BME280;26418;50.070;8.436;2023-02-18T02:34:39;100707.69;;;10.20;96.87
40730;BME280;26418;50.070;8.436;2023-02-18T02:37:34;100695.25;;;10.19;96.35
40730;BME280;26418;50.070;8.436;2023-02-18T02:45:58;100666.34;;;10.15;96.55
40730;BME280;26418;50.070;8.436;2023-02-18T02:51:29;100673.94;;;10.13;97.03
40730;BME280;26418;50.070;8.436;2023-02-18T02:56:40;100670.72;;;10.11;96.91
40730;BME280;26418;50.070;8.436;2023-02-18T02:59:08;100668.28;;;10.09;97.22
40730;BME280;26418;50.070;8.436;2023-02-18T03:05:02;100674.50;;;10.04;97.58
40730;BME280;26418;50.070;8.436;2023-02-18T03:07:47;100673.72;;;10.04;97.69
40730;BME280;26418;50.070;8.436;2023-02-18T03:11:02;100668.06;;;10.00;97.55
40730;BME280;26418;50.070;8.436;2023-02-18T03:21:31;100659.41;;;9.98;98.40
40730;BME280;26418;50.070;8.436;2023-02-18T03:24:06;100658.34;;;9.99;98.23
40730;BME280;26418;50.070;8.436;2023-02-18T03:26:35;100661.03;;;9.99;98.36
40730;BME280;26418;50.070;8.436;2023-02-18T03:29:06;100665.38;;;10.00;98.22
40730;BME280;26418;50.070;8.436;2023-02-18T03:31:33;100651.84;;;9.95;97.92
40730;BME280;26418;50.070;8.436;2023-02-18T03:34:10;100670.19;;;10.03;97.82
40730;BME280;26418;50.070;8.436;2023-02-18T03:36:37;100664.53;;;10.05;97.63
40730;BME280;26418;50.070;8.436;2023-02-18T03:39:09;100662.91;;;10.04;97.39
40730;BME280;26418;50.070;8.436;2023-02-18T03:41:35;100664.00;;;10.03;97.48
40730;BME280;26418;50.070;8.436;2023-02-18T03:44:03;100669.69;;;10.01;97.55
40730;BME280;26418;50.070;8.436;2023-02-18T03:46:29;100674.50;;;10.10;97.34
40730;BME280;26418;50.070;8.436;2023-02-18T03:48:55;100670.19;;;10.09;97.09
40730;BME280;26418;50.070;8.436;2023-02-18T03:51:20;100660.47;;;10.07;97.22
40730;BME280;26418;50.070;8.436;2023-02-18T03:53:46;100652.63;;;10.06;97.25
40730;BME280;26418;50.070;8.436;2023-02-18T03:56:13;100657.50;;;10.04;97.44
40730;BME280;26418;50.070;8.436;2023-02-18T03:58:39;100656.16;;;10.01;97.58
40730;BME280;26418;50.070;8.436;2023-02-18T04:01:05;100658.88;;;10.01;97.78
40730;BME280;26418;50.070;8.436;2023-02-18T04:03:30;100645.13;;;9.93;98.15
40730;BME280;26418;50.070;8.436;2023-02-18T04:05:56;100652.66;;;10.01;98.14
40730;BME280;26418;50.070;8.436;2023-02-18T04:08:21;100637.56;;;9.95;97.96
40730;BME280;26418;50.070;8.436;2023-02-18T04:10:47;100645.38;;;10.01;98.18
40730;BME280;26418;50.070;8.436;2023-02-18T04:13:12;100649.09;;;10.05;97.81
40730;BME280;26418;50.070;8.436;2023-02-18T04:15:37;100639.66;;;10.03;97.19
40730;BME280;26418;50.070;8.436;2023-02-18T04:18:03;100639.38;;;10.04;97.20
40730;BME280;26418;50.070;8.436;2023-02-18T04:20:28;100641.56;;;10.02;97.54
40730;BME280;26418;50.070;8.436;2023-02-18T04:22:54;100641.28;;;10.04;96.65
40730;BME280;26418;50.070;8.436;2023-02-18T04:25:19;100641.28;;;10.04;96.81
40730;BME280;26418;50.070;8.436;2023-02-18T04:27:44;100646.94;;;10.07;96.78
40730;BME280;26418;50.070;8.436;2023-02-18T04:30:10;100645.84;;;10.09;96.76
40730;BME280;26418;50.070;8.436;2023-02-18T04:32:35;100639.13;;;10.06;96.52
40730;BME280;26418;50.070;8.436;2023-02-18T04:35:01;100642.91;;;10.05;96.48
40730;BME280;26418;50.070;8.436;2023-02-18T04:37:26;100633.97;;;10.04;96.41
40730;BME280;26418;50.070;8.436;2023-02-18T04:39:52;100639.13;;;10.06;96.45
40730;BME280;26418;50.070;8.436;2023-02-18T04:42:17;100642.91;;;10.05;96.58
40730;BME280;26418;50.070;8.436;2023-02-18T04:44:42;100642.66;;;10.01;96.90
40730;BME280;26418;50.070;8.436;2023-02-18T04:47:07;100644.25;;;10.07;96.59
40730;BME280;26418;50.070;8.436;2023-02-18T04:49:33;100634.25;;;10.03;96.45
40730;BME280;26418;50.070;8.436;2023-02-18T04:51:58;100633.97;;;10.04;96.45
40730;BME280;26418;50.070;8.436;2023-02-18T04:54:24;100631.84;;;10.01;96.71
40730;BME280;26418;50.070;8.436;2023-02-18T04:56:49;100638.88;;;10.02;96.85
40730;BME280;26418;50.070;8.436;2023-02-18T04:59:14;100639.66;;;10.03;97.04
40730;BME280;26418;50.070;8.436;2023-02-18T05:01:40;100638.06;;;10.02;97.18
40730;BME280;26418;50.070;8.436;2023-02-18T05:04:05;100631.31;;;9.99;97.22
40730;BME280;26418;50.070;8.436;2023-02-18T05:06:31;100628.31;;;10.01;97.40
40730;BME280;26418;50.070;8.436;2023-02-18T05:08:56;100619.66;;;10.04;97.77
40730;BME280;26418;50.070;8.436;2023-02-18T05:11:21;100614.84;;;9.96;98.54
40730;BME280;26418;50.070;8.436;2023-02-18T05:13:46;100618.06;;;10.03;98.96
40730;BME280;26418;50.070;8.436;2023-02-18T05:16:12;100612.94;;;10.01;99.10
40730;BME280;26418;50.070;8.436;2023-02-18T05:18:38;100606.44;;;10.02;99.29
40730;BME280;26418;50.070;8.436;2023-02-18T05:21:03;100610.78;;;9.98;99.50
40730;BME280;26418;50.070;8.436;2023-02-18T05:23:28;100614.81;;;10.01;99.53
40730;BME280;26418;50.070;8.436;2023-02-18T05:25:54;100594.56;;;9.98;99.35
40730;BME280;26418;50.070;8.436;2023-02-18T05:28:19;100588.91;;;9.95;99.63
40730;BME280;26418;50.070;8.436;2023-02-18T05:30:45;100578.41;;;9.93;99.59
40730;BME280;26418;50.070;8.436;2023-02-18T05:33:10;100579.44;;;9.97;99.74
40730;BME280;26418;50.070;8.436;2023-02-18T05:35:35;100587.53;;;9.97;99.62
40730;BME280;26418;50.070;8.436;2023-02-18T05:38:01;100581.59;;;9.95;99.63
40730;BME280;26418;50.070;8.436;2023-02-18T05:40:26;100585.41;;;9.94;99.60
40730;BME280;26418;50.070;8.436;2023-02-18T05:42:51;100587.28;;;9.94;99.83
40730;BME280;26418;50.070;8.436;2023-02-18T05:45:17;100585.69;;;9.93;99.58
40730;BME280;26418;50.070;8.436;2023-02-18T05:47:42;100588.09;;;9.99;99.29
40730;BME280;26418;50.070;8.436;2023-02-18T05:50:08;100578.31;;;10.03;98.78
40730;BME280;26418;50.070;8.436;2023-02-18T05:52:33;100575.59;;;10.03;98.37
40730;BME280;26418;50.070;8.436;2023-02-18T05:54:58;100565.38;;;10.00;98.31
40730;BME280;26418;50.070;8.436;2023-02-18T05:57:24;100570.75;;;10.05;97.91
40730;BME280;26418;50.070;8.436;2023-02-18T05:59:49;100556.19;;;9.96;97.63
40730;BME280;26418;50.070;8.436;2023-02-18T06:02:14;100552.69;;;9.96;97.87
40730;BME280;26418;50.070;8.436;2023-02-18T06:04:40;100567.25;;;10.05;97.93
40730;BME280;26418;50.070;8.436;2023-02-18T06:07:05;100542.44;;;9.98;97.70
40730;BME280;26418;50.070;8.436;2023-02-18T06:09:31;100552.13;;;10.04;97.74
40730;BME280;26418;50.070;8.436;2023-02-18T06:11:56;100537.88;;;9.93;97.80
40730;BME280;26418;50.070;8.436;2023-02-18T06:14:21;100549.97;;;10.01;97.33
40730;BME280;26418;50.070;8.436;2023-02-18T06:16:47;100550.53;;;9.98;96.43
40730;BME280;26418;50.070;8.436;2023-02-18T06:19:12;100550.78;;;10.01;96.03
40730;BME280;26418;50.070;8.436;2023-02-18T06:21:37;100552.34;;;10.07;95.14
40730;BME280;26418;50.070;8.436;2023-02-18T06:24:03;100542.13;;;9.99;94.51
40730;BME280;26418;50.070;8.436;2023-02-18T06:26:28;100560.16;;;10.09;93.98
40730;BME280;26418;50.070;8.436;2023-02-18T06:28:54;100559.91;;;10.11;93.62
40730;BME280;26418;50.070;8.436;2023-02-18T06:31:19;100560.94;;;10.15;92.76
40730;BME280;26418;50.070;8.436;2023-02-18T06:33:45;100559.31;;;10.14;92.42
40730;BME280;26418;50.070;8.436;2023-02-18T06:36:11;100565.31;;;10.11;92.10
40730;BME280;26418;50.070;8.436;2023-02-18T06:38:39;100568.28;;;10.09;91.82
40730;BME280;26418;50.070;8.436;2023-02-18T06:41:05;100570.72;;;10.11;90.76
40730;BME280;26418;50.070;8.436;2023-02-18T06:43:30;100578.59;;;10.07;90.16
40730;BME280;26418;50.070;8.436;2023-02-18T06:45:56;100577.47;;;10.08;89.02
40730;BME280;26418;50.070;8.436;2023-02-18T06:48:22;100586.34;;;10.14;87.53
40730;BME280;26418;50.070;8.436;2023-02-18T06:50:48;100586.66;;;10.12;87.11
40730;BME280;26418;50.070;8.436;2023-02-18T06:53:13;100586.13;;;10.10;85.99
40730;BME280;26418;50.070;8.436;2023-02-18T06:55:41;100569.94;;;10.05;85.89
40730;BME280;26418;50.070;8.436;2023-02-18T06:58:08;100573.72;;;10.04;86.11
40730;BME280;26418;50.070;8.436;2023-02-18T07:00:34;100572.13;;;10.03;85.46
40730;BME280;26418;50.070;8.436;2023-02-18T07:02:59;100575.88;;;10.07;84.76
40730;BME280;26418;50.070;8.436;2023-02-18T07:05:25;100574.53;;;10.04;84.93
40730;BME280;26418;50.070;8.436;2023-02-18T07:07:50;100563.72;;;10.04;84.73
40730;BME280;26418;50.070;8.436;2023-02-18T07:10:16;100565.34;;;10.05;83.47
40730;BME280;26418;50.070;8.436;2023-02-18T07:12:41;100568.03;;;10.05;83.58
40730;BME280;26418;50.070;8.436;2023-02-18T07:15:06;100563.44;;;10.06;83.02
40730;BME280;26418;50.070;8.436;2023-02-18T07:17:32;100559.38;;;10.09;82.60
40730;BME280;26418;50.070;8.436;2023-02-18T07:19:58;100558.84;;;10.06;82.32
40730;BME280;26418;50.070;8.436;2023-02-18T07:22:25;100565.88;;;10.07;81.90
40730;BME280;26418;50.070;8.436;2023-02-18T07:24:51;100558.84;;;10.06;81.83
40730;BME280;26418;50.070;8.436;2023-02-18T07:27:17;100552.66;;;10.06;81.22
40730;BME280;26418;50.070;8.436;2023-02-18T07:29:42;100565.03;;;10.12;80.27
40730;BME280;26418;50.070;8.436;2023-02-18T07:32:10;100561.78;;;10.15;80.31
40730;BME280;26418;50.070;8.436;2023-02-18T07:34:36;100570.66;;;10.16;79.52
40730;BME280;26418;50.070;8.436;2023-02-18T07:37:01;100567.19;;;10.15;79.03
40730;BME280;26418;50.070;8.436;2023-02-18T07:39:26;100576.38;;;10.14;78.76
40730;BME280;26418;50.070;8.436;2023-02-18T07:41:52;100567.19;;;10.15;78.91
40730;BME280;26418;50.070;8.436;2023-02-18T07:44:17;100576.03;;;10.21;77.69
40730;BME280;26418;50.070;8.436;2023-02-18T07:46:42;100571.72;;;10.20;76.82
40730;BME280;26418;50.070;8.436;2023-02-18T07:49:08;100562.56;;;10.16;76.84
40730;BME280;26418;50.070;8.436;2023-02-18T07:51:34;100573.31;;;10.21;76.84
40730;BME280;26418;50.070;8.436;2023-02-18T07:53:59;100561.66;;;10.26;75.55
40730;BME280;26418;50.070;8.436;2023-02-18T07:56:24;100565.69;;;10.33;75.50
40730;BME280;26418;50.070;8.436;2023-02-18T07:58:50;100561.34;;;10.37;75.33
40730;BME280;26418;50.070;8.436;2023-02-18T08:01:15;100560.78;;;10.41;74.90
40730;BME280;26418;50.070;8.436;2023-02-18T08:03:41;100563.97;;;10.48;73.92
40730;BME280;26418;50.070;8.436;2023-02-18T08:06:07;100558.56;;;10.48;73.97
40730;BME280;26418;50.070;8.436;2023-02-18T08:08:33;100556.44;;;10.45;73.60
40730;BME280;26418;50.070;8.436;2023-02-18T08:11:01;100546.66;;;10.49;73.63
40730;BME280;26418;50.070;8.436;2023-02-18T08:13:28;100551.75;;;10.50;74.14
40730;BME280;26418;50.070;8.436;2023-02-18T08:15:55;100554.75;;;10.49;74.23
40730;BME280;26418;50.070;8.436;2023-02-18T08:18:21;100545.28;;;10.51;73.22
40730;BME280;26418;50.070;8.436;2023-02-18T08:20:47;100538.47;;;10.54;73.37
40730;BME280;26418;50.070;8.436;2023-02-18T08:23:14;100546.84;;;10.58;71.55
40730;BME280;26418;50.070;8.436;2023-02-18T08:25:44;100541.69;;;10.61;71.98
40730;BME280;26418;50.070;8.436;2023-02-18T08:28:10;100542.72;;;10.65;71.86
40730;BME280;26418;50.070;8.436;2023-02-18T08:30:35;100547.03;;;10.66;70.82
40730;BME280;26418;50.070;8.436;2023-02-18T08:33:00;100548.34;;;10.69;71.15
40730;BME280;26418;50.070;8.436;2023-02-18T08:35:26;100544.31;;;10.66;71.51
40730;BME280;26418;50.070;8.436;2023-02-18T08:37:51;100562.72;;;10.69;71.02
40730;BME280;26418;50.070;8.436;2023-02-18T08:40:16;100562.34;;;10.76;70.75
40730;BME280;26418;50.070;8.436;2023-02-18T08:42:42;100564.19;;;10.81;70.75
40730;BME280;26418;50.070;8.436;2023-02-18T08:45:07;100566.06;;;10.85;70.65
40730;BME280;26418;50.070;8.436;2023-02-18T08:47:33;100558.56;;;10.77;70.20
40730;BME280;26418;50.070;8.436;2023-02-18T08:49:58;100565.03;;;10.81;70.00
40730;BME280;26418;50.070;8.436;2023-02-18T08:52:24;100571.53;;;10.80;70.05
40730;BME280;26418;50.070;8.436;2023-02-18T08:54:49;100570.69;;;10.80;69.02
40730;BME280;26418;50.070;8.436;2023-02-18T08:57:14;100569.56;;;10.86;69.41
40730;BME280;26418;50.070;8.436;2023-02-18T08:59:40;100572.00;;;10.88;69.91
40730;BME280;26418;50.070;8.436;2023-02-18T09:02:05;100564.41;;;10.90;69.44
40730;BME280;26418;50.070;8.436;2023-02-18T09:04:31;100556.50;;;10.93;69.78
40730;BME280;26418;50.070;8.436;2023-02-18T09:06:56;100559.16;;;10.98;68.70
40730;BME280;26418;50.070;8.436;2023-02-18T09:09:21;100557.50;;;11.03;68.62
40730;BME280;26418;50.070;8.436;2023-02-18T09:11:47;100551.00;;;11.04;68.96
40730;BME280;26418;50.070;8.436;2023-02-18T09:14:13;100555.03;;;11.06;69.31
40730;BME280;26418;50.070;8.436;2023-02-18T09:16:39;100561.53;;;11.05;68.92
40730;BME280;26418;50.070;8.436;2023-02-18T09:19:05;100563.63;;;11.08;68.90
40730;BME280;26418;50.070;8.436;2023-02-18T09:21:31;100550.94;;;11.09;68.40
40730;BME280;26418;50.070;8.436;2023-02-18T09:23:57;100549.38;;;11.03;69.04
40730;BME280;26418;50.070;8.436;2023-02-18T09:26:23;100553.09;;;11.07;69.17
40730;BME280;26418;50.070;8.436;2023-02-18T09:28:51;100555.81;;;11.07;69.24
40730;BME280;26418;50.070;8.436;2023-02-18T09:31:19;100565.03;;;11.06;68.91
40730;BME280;26418;50.070;8.436;2023-02-18T09:33:48;100538.38;;;10.94;69.05
40730;BME280;26418;50.070;8.436;2023-02-18T09:36:15;100539.41;;;10.98;68.79
40730;BME280;26418;50.070;8.436;2023-02-18T09:38:40;100539.44;;;10.93;69.05
40730;BME280;26418;50.070;8.436;2023-02-18T09:41:13;100535.03;;;11.02;68.92
40730;BME280;26418;50.070;8.436;2023-02-18T09:43:42;100538.81;;;11.01;69.37
40730;BME280;26418;50.070;8.436;2023-02-18T09:46:22;100546.91;;;11.06;68.65
40730;BME280;26418;50.070;8.436;2023-02-18T09:48:50;100548.28;;;11.04;68.45
40730;BME280;26418;50.070;8.436;2023-02-18T09:51:17;100545.59;;;11.04;68.45
40730;BME280;26418;50.070;8.436;2023-02-18T09:53:44;100550.19;;;11.03;68.33
40730;BME280;26418;50.070;8.436;2023-02-18T09:56:25;100572.13;;;11.01;68.57
40730;BME280;26418;50.070;8.436;2023-02-18T09:58:51;100560.22;;;11.03;68.39
40730;BME280;26418;50.070;8.436;2023-02-18T10:01:30;100563.78;;;10.98;69.05
40730;BME280;26418;50.070;8.436;2023-02-18T10:04:03;100556.75;;;10.97;68.99
40730;BME280;26418;50.070;8.436;2023-02-18T10:06:32;100559.34;;;11.07;68.77
40730;BME280;26418;50.070;8.436;2023-02-18T10:09:29;100571.50;;;11.10;68.32
40730;BME280;26418;50.070;8.436;2023-02-18T10:12:12;100563.41;;;11.05;67.97
40730;BME280;26418;50.070;8.436;2023-02-18T10:14:39;100555.28;;;11.05;68.52
40730;BME280;26418;50.070;8.436;2023-02-18T10:17:06;100552.88;;;11.03;68.68
40730;BME280;26418;50.070;8.436;2023-02-18T10:19:35;100548.84;;;11.00;68.23
40730;BME280;26418;50.070;8.436;2023-02-18T10:22:03;100550.19;;;11.03;68.19
40730;BME280;26418;50.070;8.436;2023-02-18T10:27:03;100546.44;;;10.99;68.18
40730;BME280;26418;50.070;8.436;2023-02-18T10:29:29;100553.63;;;11.09;68.12
40730;BME280;26418;50.070;8.436;2023-02-18T10:32:11;100547.75;;;11.01;68.33
40730;BME280;26418;50.070;8.436;2023-02-18T10:34:59;100559.38;;;11.02;68.04
40730;BME280;26418;50.070;8.436;2023-02-18T10:40:09;100557.84;;;10.96;68.96
40730;BME280;26418;50.070;8.436;2023-02-18T10:45:11;100556.22;;;10.95;68.69
40730;BME280;26418;50.070;8.436;2023-02-18T10:50:38;100548.16;;;10.90;69.01
40730;BME280;26418;50.070;8.436;2023-02-18T10:53:13;100540.50;;;10.97;69.30
40730;BME280;26418;50.070;8.436;2023-02-18T10:55:45;100543.44;;;11.00;69.09
40730;BME280;26418;50.070;8.436;2023-02-18T10:58:31;100549.16;;;10.99;68.78
40730;BME280;26418;50.070;8.436;2023-02-18T11:00:58;100554.03;;;10.97;69.20
40730;BME280;26418;50.070;8.436;2023-02-18T11:03:27;100550.03;;;10.89;69.63
40730;BME280;26418;50.070;8.436;2023-02-18T11:06:03;100534.34;;;10.91;69.52
40730;BME280;26418;50.070;8.436;2023-02-18T11:08:38;100547.06;;;10.91;69.75
40730;BME280;26418;50.070;8.436;2023-02-18T11:11:23;100532.38;;;10.97;69.37
40730;BME280;26418;50.070;8.436;2023-02-18T11:13:58;100540.66;;;11.06;69.10
40730;BME280;26418;50.070;8.436;2023-02-18T11:16:56;100534.91;;;11.12;68.84
40730;BME280;26418;50.070;8.436;2023-02-18T11:19:37;100533.81;;;11.13;68.68
40730;BME280;26418;50.070;8.436;2023-02-18T11:22:18;100536.97;;;11.21;68.17
40730;BME280;26418;50.070;8.436;2023-02-18T11:24:45;100528.63;;;11.17;67.83
40730;BME280;26418;50.070;8.436;2023-02-18T11:27:22;100519.47;;;11.13;68.23
40730;BME280;26418;50.070;8.436;2023-02-18T11:29:53;100522.78;;;11.10;68.14
40730;BME280;26418;50.070;8.436;2023-02-18T11:32:19;100524.94;;;11.08;68.13
40730;BME280;26418;50.070;8.436;2023-02-18T11:34:45;100522.00;;;11.04;68.52
40730;BME280;26418;50.070;8.436;2023-02-18T11:37:17;100523.09;;;11.03;68.52
40730;BME280;26418;50.070;8.436;2023-02-18T11:39:44;100520.41;;;11.03;68.14
40730;BME280;26418;50.070;8.436;2023-02-18T11:42:13;100521.78;;;11.00;67.89
40730;BME280;26418;50.070;8.436;2023-02-18T11:44:50;100514.47;;;11.01;68.14
40730;BME280;26418;50.070;8.436;2023-02-18T11:47:21;100492.66;;;10.92;72.47
40730;BME280;26418;50.070;8.436;2023-02-18T11:52:35;100512.22;;;11.08;68.68
40730;BME280;26418;50.070;8.436;2023-02-18T11:55:15;100501.38;;;11.08;69.00
40730;BME280;26418;50.070;8.436;2023-02-18T11:57:45;100495.69;;;11.10;68.96
40730;BME280;26418;50.070;8.436;2023-02-18T12:02:43;100490.28;;;11.10;68.58
40730;BME280;26418;50.070;8.436;2023-02-18T12:05:17;100485.41;;;11.12;69.29
40730;BME280;26418;50.070;8.436;2023-02-18T12:07:48;100478.00;;;11.17;70.02
40730;BME280;26418;50.070;8.436;2023-02-18T12:19:32;100466.72;;;11.29;68.71
40730;BME280;26418;50.070;8.436;2023-02-18T12:27:40;100459.34;;;11.54;67.75
40730;BME280;26418;50.070;8.436;2023-02-18T12:36:11;100454.44;;;11.56;67.49
40730;BME280;26418;50.070;8.436;2023-02-18T12:39:10;100452.91;;;11.50;67.99
40730;BME280;26418;50.070;8.436;2023-02-18T12:44:43;100463.41;;;11.57;68.02
40730;BME280;26418;50.070;8.436;2023-02-18T12:47:19;100450.63;;;11.57;67.79
40730;BME280;26418;50.070;8.436;2023-02-18T13:16:19;100439.59;;;11.54;72.26
40730;BME280;26418;50.070;8.436;2023-02-18T13:18:58;100459.72;;;11.67;72.13
40730;BME280;26418;50.070;8.436;2023-02-18T13:21:25;100459.13;;;11.70;70.68
40730;BME280;26418;50.070;8.436;2023-02-18T13:23:55;100466.31;;;11.60;70.69
40730;BME280;26418;50.070;8.436;2023-02-18T13:26:22;100457.47;;;11.55;71.27
40730;BME280;26418;50.070;8.436;2023-02-18T13:29:50;100452.63;;;11.52;71.57
40730;BME280;26418;50.070;8.436;2023-02-18T13:35:01;100464.97;;;11.39;75.81
40730;BME280;26418;50.070;8.436;2023-02-18T13:40:17;100458.78;;;11.19;76.69
40730;BME280;26418;50.070;8.436;2023-02-18T13:42:45;100466.81;;;11.24;77.38
40730;BME280;26418;50.070;8.436;2023-02-18T13:45:25;100459.22;;;11.26;77.32
40730;BME280;26418;50.070;8.436;2023-02-18T13:47:52;100456.50;;;11.26;77.43
40730;BME280;26418;50.070;8.436;2023-02-18T13:52:49;100439.81;;;11.38;77.90
40730;BME280;26418;50.070;8.436;2023-02-18T13:55:24;100453.28;;;11.43;77.27
40730;BME280;26418;50.070;8.436;2023-02-18T13:57:53;100453.06;;;11.40;77.16
40730;BME280;26418;50.070;8.436;2023-02-18T14:00:23;100466.91;;;11.38;77.11
40730;BME280;26418;50.070;8.436;2023-02-18T14:03:00;100453.94;;;11.35;77.78
40730;BME280;26418;50.070;8.436;2023-02-18T14:05:38;100456.06;;;11.38;78.10
40730;BME280;26418;50.070;8.436;2023-02-18T14:08:35;100458.56;;;11.35;78.40
40730;BME280;26418;50.070;8.436;2023-02-18T14:13:46;100458.34;;;11.31;78.16
40730;BME280;26418;50.070;8.436;2023-02-18T14:16:12;100461.91;;;11.26;77.57
40730;BME280;26418;50.070;8.436;2023-02-18T14:21:42;100464.75;;;11.16;78.26
40730;BME280;26418;50.070;8.436;2023-02-18T14:24:11;100459.41;;;11.11;78.64
40730;BME280;26418;50.070;8.436;2023-02-18T14:26:45;100469.28;;;11.01;79.30
40730;BME280;26418;50.070;8.436;2023-02-18T14:29:15;100467.97;;;10.99;79.28
40730;BME280;26418;50.070;8.436;2023-02-18T14:31:59;100458.50;;;10.96;78.87
40730;BME280;26418;50.070;8.436;2023-02-18T14:39:43;100458.78;;;10.95;78.12
40730;BME280;26418;50.070;8.436;2023-02-18T14:42:35;100450.91;;;10.98;78.29
40730;BME280;26418;50.070;8.436;2023-02-18T14:50:43;100455.75;;;11.01;77.50
40730;BME280;26418;50.070;8.436;2023-02-18T14:53:19;100451.63;;;11.04;76.40
40730;BME280;26418;50.070;8.436;2023-02-18T14:55:50;100437.59;;;11.02;76.15
40730;BME280;26418;50.070;8.436;2023-02-18T15:00:54;100447.31;;;11.03;76.28
40730;BME280;26418;50.070;8.436;2023-02-18T15:03:20;100441.38;;;11.01;76.34
40730;BME280;26418;50.070;8.436;2023-02-18T15:05:48;100452.97;;;11.07;75.74
40730;BME280;26418;50.070;8.436;2023-02-18T15:08:17;100449.94;;;11.08;75.46
40730;BME280;26418;50.070;8.436;2023-02-18T15:10:44;100445.66;;;11.07;75.32